createdAt,value
2022-12-23T00:02:39.416Z,3.79
2022-12-23T00:05:42.227Z,3.81
2022-12-23T00:08:44.806Z,3.84
2022-12-23T00:12:06.300Z,3.89
2022-12-23T00:15:09.255Z,3.85
2022-12-23T00:18:11.888Z,3.84
2022-12-23T00:21:16.264Z,3.92
2022-12-23T00:24:18.797Z,3.93
2022-12-23T00:27:21.133Z,3.88
2022-12-23T00:30:24.744Z,3.88
2022-12-23T00:33:28.907Z,3.89
2022-12-23T00:36:31.685Z,3.89
2022-12-23T00:39:55.031Z,3.89
2022-12-23T00:42:58.330Z,3.93
2022-12-23T00:46:00.677Z,3.91
2022-12-23T00:49:21.994Z,3.87
2022-12-23T00:52:24.355Z,3.91
2022-12-23T00:55:27.057Z,4.00
2022-12-23T00:58:29.458Z,3.94
2022-12-23T01:01:51.755Z,4.06
2022-12-23T01:05:12.991Z,4.02
2022-12-23T01:08:15.663Z,4.00
2022-12-23T01:11:18.220Z,4.01
2022-12-23T01:14:21.348Z,4.11
2022-12-23T01:17:23.831Z,4.10
2022-12-23T01:20:29.240Z,4.06
2022-12-23T01:23:31.669Z,4.21
2022-12-23T01:26:34.527Z,4.13
2022-12-23T01:29:37.733Z,4.23
2022-12-23T01:32:40.352Z,4.31
2022-12-23T01:35:42.585Z,4.26
2022-12-23T01:38:45.523Z,4.29
2022-12-23T01:42:06.445Z,4.33
2022-12-23T01:45:14.294Z,4.32
2022-12-23T01:48:21.924Z,4.46
2022-12-23T01:51:28.741Z,4.39
2022-12-23T01:54:31.297Z,4.39
2022-12-23T01:57:34.757Z,4.40
2022-12-23T02:00:59.938Z,4.43
2022-12-23T02:04:07.736Z,4.46
2022-12-23T02:07:29.757Z,4.49
2022-12-23T02:10:56.190Z,4.47
2022-12-23T02:14:36.646Z,4.47
2022-12-23T02:17:59.583Z,4.49
2022-12-23T02:21:21.161Z,4.44
2022-12-23T02:24:29.612Z,4.41
2022-12-23T02:27:33.251Z,4.40
2022-12-23T02:30:52.535Z,4.36
2022-12-23T02:33:58.018Z,4.31
2022-12-23T02:37:22.758Z,4.30
2022-12-23T02:40:44.310Z,4.27
2022-12-23T02:43:50.214Z,4.19
2022-12-23T02:46:57.098Z,4.20
2022-12-23T02:50:02.539Z,4.18
2022-12-23T02:53:10.053Z,4.15
2022-12-23T02:56:14.560Z,4.18
2022-12-23T02:59:20.406Z,4.11
2022-12-23T03:02:23.238Z,4.06
2022-12-23T03:05:35.420Z,4.09
2022-12-23T03:08:42.461Z,4.05
2022-12-23T03:11:53.986Z,4.18
2022-12-23T03:15:16.521Z,4.06
2022-12-23T03:18:21.888Z,4.19
2022-12-23T03:21:31.964Z,3.97
2022-12-23T03:24:52.984Z,3.99
2022-12-23T03:28:01.937Z,3.95
2022-12-23T03:31:05.662Z,4.00
2022-12-23T03:34:10.910Z,3.97
2022-12-23T03:37:14.387Z,4.03
2022-12-23T03:40:17.411Z,4.05
2022-12-23T03:43:46.585Z,4.06
2022-12-23T03:46:56.212Z,4.05
2022-12-23T03:50:02.781Z,3.98
2022-12-23T03:53:20.180Z,3.99
2022-12-23T03:56:27.303Z,3.86
2022-12-23T03:59:41.267Z,3.83
2022-12-23T04:03:16.126Z,3.78
2022-12-23T04:06:22.541Z,3.73
2022-12-23T04:09:26.151Z,3.77
2022-12-23T04:12:30.312Z,3.75
2022-12-23T04:15:33.099Z,3.82
2022-12-23T04:18:35.986Z,3.72
2022-12-23T04:21:38.688Z,3.72
2022-12-23T04:24:41.512Z,3.73
2022-12-23T04:27:43.940Z,3.68
2022-12-23T04:30:46.639Z,3.65
2022-12-23T04:33:49.052Z,3.73
2022-12-23T04:36:51.602Z,3.68
2022-12-23T04:39:54.011Z,3.67
2022-12-23T04:42:56.606Z,3.75
2022-12-23T04:45:58.847Z,3.75
2022-12-23T04:49:01.467Z,3.68
2022-12-23T04:52:03.872Z,3.62
2022-12-23T04:55:06.696Z,3.71
2022-12-23T04:58:09.152Z,3.66
2022-12-23T05:01:12.331Z,3.66
2022-12-23T05:04:14.757Z,3.57
2022-12-23T05:07:17.587Z,3.53
2022-12-23T05:10:20.983Z,3.57
2022-12-23T05:13:23.986Z,3.46
2022-12-23T05:16:26.506Z,3.45
2022-12-23T05:19:29.161Z,3.53
2022-12-23T05:22:31.522Z,3.45
2022-12-23T05:25:35.060Z,3.46
2022-12-23T05:28:37.696Z,3.48
2022-12-23T05:31:40.327Z,3.46
2022-12-23T05:34:42.683Z,3.42
2022-12-23T05:37:45.302Z,3.37
2022-12-23T05:40:49.683Z,3.39
2022-12-23T05:43:52.301Z,3.28
2022-12-23T05:46:54.669Z,3.28
2022-12-23T05:49:57.256Z,3.31
2022-12-23T05:52:59.685Z,3.27
2022-12-23T05:56:06.083Z,3.29
2022-12-23T05:59:08.379Z,3.33
2022-12-23T06:02:11.216Z,3.34
2022-12-23T06:05:14.201Z,3.33
2022-12-23T06:08:16.688Z,3.32
2022-12-23T06:11:19.436Z,3.34
2022-12-23T06:14:28.379Z,3.35
2022-12-23T06:17:31.579Z,3.36
2022-12-23T06:20:34.740Z,3.31
2022-12-23T06:23:37.464Z,3.26
2022-12-23T06:26:39.747Z,3.16
2022-12-23T06:29:42.696Z,3.15
2022-12-23T06:32:45.053Z,3.24
2022-12-23T06:35:50.037Z,3.23
2022-12-23T06:38:52.376Z,3.06
2022-12-23T06:41:55.102Z,3.09
2022-12-23T06:44:57.367Z,2.91
2022-12-23T06:48:00.008Z,2.92
2022-12-23T06:51:02.639Z,2.91
2022-12-23T06:54:05.350Z,2.81
2022-12-23T06:57:07.706Z,2.84
2022-12-23T07:00:10.818Z,2.76
2022-12-23T07:03:13.373Z,2.79
2022-12-23T07:06:16.344Z,2.86
2022-12-23T07:09:18.760Z,2.91
2022-12-23T07:12:21.442Z,2.91
2022-12-23T07:15:23.906Z,2.99
2022-12-23T07:18:26.591Z,2.94
2022-12-23T07:21:30.137Z,2.99
2022-12-23T07:24:33.038Z,3.06
2022-12-23T07:27:35.337Z,3.19
2022-12-23T07:30:41.581Z,3.18
2022-12-23T07:33:43.988Z,3.14
2022-12-23T07:36:46.631Z,3.22
2022-12-23T07:39:49.026Z,3.21
2022-12-23T07:42:56.103Z,3.22
2022-12-23T07:46:00.875Z,3.25
2022-12-23T07:49:03.919Z,3.13
2022-12-23T07:52:06.273Z,3.15
2022-12-23T07:55:08.987Z,3.00
2022-12-23T07:58:11.480Z,3.02
2022-12-23T08:01:14.227Z,3.07
2022-12-23T08:04:16.954Z,3.16
2022-12-23T08:07:19.369Z,3.16
2022-12-23T08:10:21.944Z,3.22
2022-12-23T08:13:24.238Z,3.20
2022-12-23T08:16:26.982Z,3.31
2022-12-23T08:19:29.283Z,3.32
2022-12-23T08:22:32.069Z,3.14
2022-12-23T08:25:34.373Z,3.50
2022-12-23T08:28:37.691Z,3.66
2022-12-23T08:31:40.183Z,3.42
2022-12-23T08:34:43.506Z,3.54
2022-12-23T08:37:45.800Z,3.55
2022-12-23T08:40:52.153Z,3.38
2022-12-23T08:43:55.620Z,3.48
2022-12-23T08:46:58.294Z,3.37
2022-12-23T08:50:00.702Z,3.47
2022-12-23T08:53:03.782Z,3.27
2022-12-23T08:56:07.971Z,3.37
2022-12-23T08:59:18.296Z,3.28
2022-12-23T09:02:21.815Z,3.19
2022-12-23T09:05:24.741Z,3.28
2022-12-23T09:08:27.085Z,3.59
2022-12-23T09:11:30.211Z,3.64
2022-12-23T09:14:32.571Z,3.81
2022-12-23T09:17:35.307Z,3.56
2022-12-23T09:20:38.001Z,3.79
2022-12-23T09:23:40.957Z,3.65
2022-12-23T09:26:43.391Z,3.73
2022-12-23T09:29:45.994Z,3.69
2022-12-23T09:32:48.652Z,3.79
2022-12-23T09:35:51.372Z,3.89
2022-12-23T09:38:57.400Z,3.85
2022-12-23T09:42:03.194Z,3.96
2022-12-23T09:45:14.841Z,4.02
2022-12-23T09:48:19.686Z,4.20
2022-12-23T09:51:23.585Z,4.17
2022-12-23T09:54:29.256Z,3.80
2022-12-23T09:57:46.497Z,3.81
2022-12-23T10:01:01.854Z,4.05
2022-12-23T10:04:22.702Z,4.12
2022-12-23T10:07:33.151Z,3.96
2022-12-23T10:10:48.215Z,4.01
2022-12-23T10:13:57.031Z,3.84
2022-12-23T10:17:02.367Z,3.64
2022-12-23T10:20:05.950Z,3.69
2022-12-23T10:23:13.681Z,3.54
2022-12-23T10:26:24.205Z,3.83
2022-12-23T10:29:30.093Z,3.89
2022-12-23T10:32:42.466Z,3.79
2022-12-23T10:35:48.285Z,3.69
2022-12-23T10:38:58.824Z,3.66
2022-12-23T10:42:04.311Z,3.46
2022-12-23T10:45:21.958Z,3.58
2022-12-23T10:48:27.710Z,3.55
2022-12-23T10:51:45.444Z,3.63
2022-12-23T10:54:48.416Z,3.68
2022-12-23T10:57:51.986Z,3.64
2022-12-23T11:00:56.610Z,3.66
2022-12-23T11:03:58.949Z,3.73
2022-12-23T11:07:41.642Z,3.77
2022-12-23T11:10:31.362Z,3.82
2022-12-23T11:13:41.578Z,3.97
2022-12-23T11:16:45.716Z,4.16
2022-12-23T11:19:49.026Z,4.35
2022-12-23T11:22:55.405Z,4.28
2022-12-23T11:26:09.628Z,4.24
2022-12-23T11:29:15.872Z,4.37
2022-12-23T11:32:20.667Z,4.40
2022-12-23T11:35:28.136Z,4.00
2022-12-23T11:38:31.308Z,3.85
2022-12-23T11:41:38.944Z,3.83
2022-12-23T11:44:43.965Z,3.99
2022-12-23T11:47:46.319Z,4.05
2022-12-23T11:50:57.784Z,4.08
2022-12-23T11:54:01.307Z,4.25
2022-12-23T11:57:06.020Z,4.37
2022-12-23T12:00:18.634Z,4.43
2022-12-23T12:03:24.337Z,4.52
2022-12-23T12:06:27.496Z,4.61
2022-12-23T12:09:31.593Z,4.46
2022-12-23T12:12:33.991Z,4.34
2022-12-23T12:15:55.545Z,4.24
2022-12-23T12:19:01.542Z,4.10
2022-12-23T12:22:07.092Z,4.20
2022-12-23T12:25:15.610Z,4.37
2022-12-23T12:28:24.153Z,4.52
2022-12-23T12:31:42.548Z,4.65
2022-12-23T12:35:17.664Z,4.77
2022-12-23T12:38:27.623Z,4.85
2022-12-23T12:41:30.364Z,4.98
2022-12-23T12:44:55.931Z,4.96
2022-12-23T12:48:04.597Z,4.91
2022-12-23T12:51:18.462Z,4.90
2022-12-23T12:54:30.184Z,4.85
2022-12-23T12:57:35.189Z,4.91
2022-12-23T13:00:50.752Z,4.96
2022-12-23T13:04:04.391Z,4.87
2022-12-23T13:07:19.205Z,4.86
2022-12-23T13:10:24.476Z,4.86
2022-12-23T13:13:27.095Z,4.90
2022-12-23T13:16:39.164Z,4.89
2022-12-23T13:20:02.354Z,4.95
2022-12-23T13:23:45.569Z,4.79
2022-12-23T13:26:46.430Z,4.64
2022-12-23T13:30:07.112Z,4.70
2022-12-23T13:33:13.732Z,4.69
2022-12-23T13:36:34.633Z,4.68
2022-12-23T13:39:58.948Z,4.62
2022-12-23T13:43:06.060Z,4.58
2022-12-23T13:46:15.008Z,4.44
2022-12-23T13:49:26.297Z,4.53
2022-12-23T13:52:38.201Z,4.68
2022-12-23T13:55:57.257Z,4.80
2022-12-23T13:59:00.157Z,4.75
2022-12-23T14:02:02.642Z,4.78
2022-12-23T14:05:09.289Z,4.81
2022-12-23T14:08:20.299Z,4.78
2022-12-23T14:11:33.455Z,4.84
2022-12-23T14:14:51.664Z,4.68
2022-12-23T14:18:17.549Z,4.74
2022-12-23T14:21:29.238Z,4.62
2022-12-23T14:24:50.863Z,4.55
2022-12-23T14:27:53.196Z,4.54
2022-12-23T14:30:57.034Z,4.52
2022-12-23T14:34:07.347Z,4.53
2022-12-23T14:37:23.607Z,4.58
2022-12-23T14:40:36.716Z,4.61
2022-12-23T14:43:45.683Z,4.62
2022-12-23T14:46:47.971Z,4.55
2022-12-23T14:49:50.986Z,4.61
2022-12-23T14:52:59.490Z,4.64
2022-12-23T14:56:21.365Z,4.60
2022-12-23T14:59:29.946Z,4.65
2022-12-23T15:02:35.293Z,4.67
2022-12-23T15:05:38.705Z,4.63
2022-12-23T15:08:42.124Z,4.62
2022-12-23T15:11:44.613Z,4.61
2022-12-23T15:14:51.198Z,4.57
2022-12-23T15:18:03.885Z,4.56
2022-12-23T15:21:12.469Z,4.58
2022-12-23T15:24:16.508Z,4.55
2022-12-23T15:27:29.361Z,4.49
2022-12-23T15:30:36.563Z,4.45
2022-12-23T15:37:02.446Z,4.46
2022-12-23T15:40:12.531Z,4.50
2022-12-23T15:43:23.939Z,4.47
2022-12-23T15:46:30.207Z,4.48
2022-12-23T15:49:32.900Z,4.52
2022-12-23T15:52:35.555Z,4.48
2022-12-23T15:55:40.290Z,4.51
2022-12-23T15:58:43.055Z,4.55
2022-12-23T16:01:45.477Z,4.56
2022-12-23T16:04:56.490Z,4.71
2022-12-23T16:08:14.028Z,4.57
2022-12-23T16:11:19.196Z,4.66
2022-12-23T16:14:22.086Z,4.64
2022-12-23T16:17:30.352Z,4.71
2022-12-23T16:20:40.456Z,4.71
2022-12-23T16:23:49.246Z,4.68
2022-12-23T16:26:54.402Z,4.61
2022-12-23T16:29:59.031Z,4.63
2022-12-23T16:33:05.269Z,4.46
2022-12-23T16:36:21.850Z,4.40
2022-12-23T16:39:24.395Z,4.38
2022-12-23T16:42:27.111Z,4.30
2022-12-23T16:45:31.685Z,4.34
2022-12-23T16:48:36.510Z,4.31
2022-12-23T16:51:39.660Z,4.32
2022-12-23T16:54:42.554Z,4.31
2022-12-23T16:57:45.401Z,4.28
2022-12-23T17:00:49.462Z,4.27
2022-12-23T17:03:55.839Z,4.33
2022-12-23T17:06:58.514Z,4.24
2022-12-23T17:10:00.864Z,4.25
2022-12-23T17:13:04.449Z,4.27
2022-12-23T17:16:10.067Z,4.22
2022-12-23T17:19:12.761Z,4.25
2022-12-23T17:22:15.301Z,4.29
2022-12-23T17:25:26.245Z,4.31
2022-12-23T17:28:30.946Z,4.36
2022-12-23T17:31:34.212Z,4.33
2022-12-23T17:34:36.662Z,4.32
2022-12-23T17:37:40.579Z,4.31
2022-12-23T17:40:47.007Z,4.31
2022-12-23T17:43:49.667Z,4.31
2022-12-23T17:46:51.945Z,4.32
2022-12-23T17:49:54.955Z,4.31
2022-12-23T17:52:57.394Z,4.34
2022-12-23T17:56:00.039Z,4.36
2022-12-23T17:59:02.496Z,4.39
2022-12-23T18:02:11.116Z,4.38
2022-12-23T18:05:30.263Z,4.39
2022-12-23T18:08:32.645Z,4.37
2022-12-23T18:11:45.397Z,4.40
2022-12-23T18:14:47.887Z,4.36
2022-12-23T18:17:52.553Z,4.35
2022-12-23T18:20:59.780Z,4.39
2022-12-23T18:24:02.415Z,4.34
2022-12-23T18:27:11.101Z,4.33
2022-12-23T18:30:19.987Z,4.31
2022-12-23T18:33:24.171Z,4.32
2022-12-23T18:36:28.412Z,4.30
2022-12-23T18:39:31.438Z,4.48
2022-12-23T18:42:34.402Z,4.47
2022-12-23T18:45:41.852Z,4.33
2022-12-23T18:48:44.596Z,4.28
2022-12-23T18:51:47.103Z,4.25
2022-12-23T18:54:50.038Z,4.25
2022-12-23T18:57:52.745Z,4.25
2022-12-23T19:00:56.923Z,4.25
2022-12-23T19:03:59.556Z,4.29
2022-12-23T19:07:02.571Z,4.25
2022-12-23T19:10:05.594Z,4.35
2022-12-23T19:13:09.115Z,4.29
2022-12-23T19:16:15.366Z,4.32
2022-12-23T19:19:18.581Z,4.32
2022-12-23T19:22:21.037Z,4.37
2022-12-23T19:25:23.794Z,4.30
2022-12-23T19:28:26.243Z,4.30
2022-12-23T19:31:29.994Z,4.30
2022-12-23T19:34:32.618Z,4.36
2022-12-23T19:37:36.407Z,4.33
2022-12-23T19:40:41.921Z,4.28
2022-12-23T19:43:45.836Z,4.24
2022-12-23T19:46:48.904Z,4.23
2022-12-23T19:49:51.614Z,4.18
2022-12-23T19:52:54.803Z,4.22
2022-12-23T19:56:01.816Z,4.27
2022-12-23T19:59:04.161Z,4.42
2022-12-23T20:02:07.010Z,4.38
2022-12-23T20:05:10.217Z,4.30
2022-12-23T20:08:15.622Z,4.35
2022-12-23T20:11:23.279Z,4.39
2022-12-23T20:14:29.041Z,4.37
2022-12-23T20:17:34.784Z,4.36
2022-12-23T20:20:38.499Z,4.39
2022-12-23T20:23:41.448Z,4.36
2022-12-23T20:26:44.361Z,4.37
2022-12-23T20:29:47.073Z,4.37
2022-12-23T20:32:49.656Z,4.38
2022-12-23T20:35:52.193Z,4.38
2022-12-23T20:38:54.720Z,4.37
2022-12-23T20:41:57.523Z,4.33
2022-12-23T20:45:00.130Z,4.40
2022-12-23T20:48:03.060Z,4.41
2022-12-23T20:51:11.675Z,4.48
2022-12-23T20:54:14.342Z,4.38
2022-12-23T20:57:16.839Z,4.44
2022-12-23T21:00:21.326Z,4.39
2022-12-23T21:03:23.772Z,4.41
2022-12-23T21:06:27.065Z,4.25
2022-12-23T21:09:29.545Z,4.23
2022-12-23T21:12:32.268Z,4.28
2022-12-23T21:15:34.692Z,4.26
2022-12-23T21:18:41.837Z,4.25
2022-12-23T21:21:44.634Z,4.32
2022-12-23T21:24:47.344Z,4.28
2022-12-23T21:27:50.612Z,4.24
2022-12-23T21:30:55.329Z,4.27
2022-12-23T21:33:58.144Z,4.28
2022-12-23T21:37:00.889Z,4.20
2022-12-23T21:40:03.456Z,4.22
2022-12-23T21:43:08.824Z,4.26
2022-12-23T21:46:12.775Z,4.14
2022-12-23T21:49:15.473Z,4.15
2022-12-23T21:52:17.850Z,4.21
2022-12-23T21:55:20.662Z,4.15
2022-12-23T21:58:23.048Z,4.13
2022-12-23T22:01:26.214Z,4.18
2022-12-23T22:04:28.987Z,4.24
2022-12-23T22:07:31.441Z,4.27
2022-12-23T22:10:39.121Z,4.17
2022-12-23T22:13:42.233Z,4.17
2022-12-23T22:16:44.977Z,4.16
2022-12-23T22:19:47.478Z,4.13
2022-12-23T22:22:50.044Z,4.09
2022-12-23T22:25:55.396Z,4.14
2022-12-23T22:28:59.520Z,4.11
2022-12-23T22:32:01.989Z,4.13
2022-12-23T22:35:04.834Z,4.13
2022-12-23T22:38:07.800Z,4.11
2022-12-23T22:41:11.126Z,4.10
2022-12-23T22:44:13.671Z,4.08
2022-12-23T22:47:16.554Z,4.13
2022-12-23T22:50:19.819Z,4.15
2022-12-23T22:53:29.552Z,4.13
2022-12-23T22:56:32.326Z,4.18
2022-12-23T22:59:34.932Z,4.18
2022-12-23T23:02:37.406Z,4.18
2022-12-23T23:05:40.560Z,4.14
2022-12-23T23:08:43.199Z,4.25
2022-12-23T23:11:46.185Z,4.28
2022-12-23T23:14:54.577Z,4.29
2022-12-23T23:17:57.222Z,4.33
2022-12-23T23:21:00.003Z,4.33
2022-12-23T23:24:02.839Z,4.36
2022-12-23T23:27:05.239Z,4.34
2022-12-23T23:30:08.501Z,4.38
2022-12-23T23:33:11.399Z,4.37
2022-12-23T23:36:14.116Z,4.45
2022-12-23T23:39:16.529Z,4.40
2022-12-23T23:42:19.215Z,4.37
2022-12-23T23:45:21.638Z,4.30
2022-12-23T23:48:24.604Z,4.29
2022-12-23T23:51:27.456Z,4.35
2022-12-23T23:54:30.089Z,4.39
2022-12-23T23:57:32.486Z,4.29
